sensor_id;sensor_type;location;lat;lon;timestamp;P1;durP1;ratioP1;P2;durP2;ratioP2
16472;SDS011;8347;52.486;13.432;2024-01-06T00:01:26;75.15;;;30.70;;
16472;SDS011;8347;52.486;13.432;2024-01-06T00:04:13;64.20;;;27.80;;
16472;SDS011;8347;52.486;13.432;2024-01-06T00:06:59;63.47;;;30.58;;
16472;SDS011;8347;52.486;13.432;2024-01-06T00:09:46;57.70;;;29.10;;
16472;SDS011;8347;52.486;13.432;2024-01-06T00:12:32;64.50;;;27.77;;
16472;SDS011;8347;52.486;13.432;2024-01-06T00:15:18;63.53;;;28.35;;
16472;SDS011;8347;52.486;13.432;2024-01-06T00:18:05;60.45;;;27.83;;
16472;SDS011;8347;52.486;13.432;2024-01-06T00:20:52;59.63;;;28.27;;
16472;SDS011;8347;52.486;13.432;2024-01-06T00:23:40;54.47;;;27.48;;
16472;SDS011;8347;52.486;13.432;2024-01-06T00:26:26;59.70;;;26.45;;
16472;SDS011;8347;52.486;13.432;2024-01-06T00:29:13;68.15;;;29.15;;
16472;SDS011;8347;52.486;13.432;2024-01-06T00:31:59;58.45;;;27.00;;
16472;SDS011;8347;52.486;13.432;2024-01-06T00:34:46;60.03;;;27.42;;
16472;SDS011;8347;52.486;13.432;2024-01-06T00:37:33;62.97;;;26.75;;
16472;SDS011;8347;52.486;13.432;2024-01-06T00:40:19;65.00;;;28.58;;
16472;SDS011;8347;52.486;13.432;2024-01-06T00:43:06;64.90;;;28.02;;
16472;SDS011;8347;52.486;13.432;2024-01-06T00:45:52;53.20;;;26.35;;
16472;SDS011;8347;52.486;13.432;2024-01-06T00:48:38;56.40;;;26.85;;
16472;SDS011;8347;52.486;13.432;2024-01-06T00:51:25;61.35;;;27.02;;
16472;SDS011;8347;52.486;13.432;2024-01-06T00:54:11;58.47;;;26.65;;
16472;SDS011;8347;52.486;13.432;2024-01-06T00:56:58;58.75;;;26.90;;
16472;SDS011;8347;52.486;13.432;2024-01-06T00:59:44;55.38;;;25.92;;
16472;SDS011;8347;52.486;13.432;2024-01-06T01:02:31;52.75;;;25.77;;
16472;SDS011;8347;52.486;13.432;2024-01-06T01:05:17;59.60;;;25.40;;
16472;SDS011;8347;52.486;13.432;2024-01-06T01:08:04;59.65;;;26.00;;
16472;SDS011;8347;52.486;13.432;2024-01-06T01:10:50;56.97;;;27.70;;
16472;SDS011;8347;52.486;13.432;2024-01-06T01:13:37;56.95;;;27.45;;
16472;SDS011;8347;52.486;13.432;2024-01-06T01:16:23;53.75;;;25.55;;
16472;SDS011;8347;52.486;13.432;2024-01-06T01:19:10;52.25;;;25.52;;
16472;SDS011;8347;52.486;13.432;2024-01-06T01:21:57;50.60;;;24.77;;
16472;SDS011;8347;52.486;13.432;2024-01-06T01:24:43;53.03;;;24.88;;
16472;SDS011;8347;52.486;13.432;2024-01-06T01:27:29;59.63;;;25.00;;
16472;SDS011;8347;52.486;13.432;2024-01-06T01:30:16;51.40;;;24.52;;
16472;SDS011;8347;52.486;13.432;2024-01-06T01:33:02;47.97;;;23.83;;
16472;SDS011;8347;52.486;13.432;2024-01-06T01:35:49;51.33;;;25.15;;
16472;SDS011;8347;52.486;13.432;2024-01-06T01:38:36;57.55;;;24.58;;
16472;SDS011;8347;52.486;13.432;2024-01-06T01:41:24;48.45;;;24.63;;
16472;SDS011;8347;52.486;13.432;2024-01-06T01:44:11;49.00;;;23.75;;
16472;SDS011;8347;52.486;13.432;2024-01-06T01:46:58;53.70;;;25.48;;
16472;SDS011;8347;52.486;13.432;2024-01-06T01:49:45;51.08;;;23.92;;
16472;SDS011;8347;52.486;13.432;2024-01-06T01:52:32;55.83;;;24.30;;
16472;SDS011;8347;52.486;13.432;2024-01-06T01:55:21;55.60;;;24.20;;
16472;SDS011;8347;52.486;13.432;2024-01-06T01:58:07;46.78;;;22.15;;
16472;SDS011;8347;52.486;13.432;2024-01-06T02:00:55;52.95;;;23.23;;
16472;SDS011;8347;52.486;13.432;2024-01-06T02:03:41;55.03;;;25.05;;
16472;SDS011;8347;52.486;13.432;2024-01-06T02:06:30;49.22;;;23.40;;
16472;SDS011;8347;52.486;13.432;2024-01-06T02:09:17;51.63;;;26.30;;
16472;SDS011;8347;52.486;13.432;2024-01-06T02:12:04;56.70;;;25.35;;
16472;SDS011;8347;52.486;13.432;2024-01-06T02:14:50;51.63;;;23.48;;
16472;SDS011;8347;52.486;13.432;2024-01-06T02:17:37;54.03;;;24.30;;
16472;SDS011;8347;52.486;13.432;2024-01-06T02:20:25;53.58;;;23.35;;
16472;SDS011;8347;52.486;13.432;2024-01-06T02:23:12;44.03;;;20.75;;
16472;SDS011;8347;52.486;13.432;2024-01-06T02:25:59;52.85;;;23.30;;
16472;SDS011;8347;52.486;13.432;2024-01-06T02:28:45;50.78;;;22.55;;
16472;SDS011;8347;52.486;13.432;2024-01-06T02:31:33;49.25;;;23.10;;
16472;SDS011;8347;52.486;13.432;2024-01-06T02:34:20;46.33;;;22.15;;
16472;SDS011;8347;52.486;13.432;2024-01-06T02:37:06;45.15;;;22.52;;
16472;SDS011;8347;52.486;13.432;2024-01-06T02:39:53;46.97;;;21.35;;
16472;SDS011;8347;52.486;13.432;2024-01-06T02:42:40;48.35;;;23.88;;
16472;SDS011;8347;52.486;13.432;2024-01-06T02:45:27;52.50;;;22.10;;
16472;SDS011;8347;52.486;13.432;2024-01-06T02:48:13;45.50;;;22.40;;
16472;SDS011;8347;52.486;13.432;2024-01-06T02:51:00;48.72;;;24.02;;
16472;SDS011;8347;52.486;13.432;2024-01-06T02:53:46;44.45;;;21.70;;
16472;SDS011;8347;52.486;13.432;2024-01-06T02:56:33;51.03;;;23.70;;
16472;SDS011;8347;52.486;13.432;2024-01-06T02:59:19;46.25;;;20.67;;
16472;SDS011;8347;52.486;13.432;2024-01-06T03:02:06;45.38;;;22.90;;
16472;SDS011;8347;52.486;13.432;2024-01-06T03:04:52;49.78;;;23.05;;
16472;SDS011;8347;52.486;13.432;2024-01-06T03:07:40;49.42;;;21.75;;
16472;SDS011;8347;52.486;13.432;2024-01-06T03:10:26;47.50;;;22.48;;
16472;SDS011;8347;52.486;13.432;2024-01-06T03:13:13;50.47;;;22.17;;
16472;SDS011;8347;52.486;13.432;2024-01-06T03:16:02;45.28;;;21.40;;
16472;SDS011;8347;52.486;13.432;2024-01-06T03:18:49;45.30;;;22.13;;
16472;SDS011;8347;52.486;13.432;2024-01-06T03:21:36;49.17;;;22.38;;
16472;SDS011;8347;52.486;13.432;2024-01-06T03:24:23;49.88;;;22.17;;
16472;SDS011;8347;52.486;13.432;2024-01-06T03:27:12;47.03;;;20.48;;
16472;SDS011;8347;52.486;13.432;2024-01-06T03:29:58;46.42;;;22.08;;
16472;SDS011;8347;52.486;13.432;2024-01-06T03:32:45;48.95;;;23.73;;
16472;SDS011;8347;52.486;13.432;2024-01-06T03:35:31;54.97;;;22.42;;
16472;SDS011;8347;52.486;13.432;2024-01-06T03:38:17;53.28;;;23.55;;
16472;SDS011;8347;52.486;13.432;2024-01-06T03:41:04;47.15;;;21.52;;
16472;SDS011;8347;52.486;13.432;2024-01-06T03:43:50;55.05;;;22.40;;
16472;SDS011;8347;52.486;13.432;2024-01-06T03:46:37;47.03;;;20.95;;
16472;SDS011;8347;52.486;13.432;2024-01-06T03:49:24;48.10;;;22.33;;
16472;SDS011;8347;52.486;13.432;2024-01-06T03:52:11;43.65;;;22.17;;
16472;SDS011;8347;52.486;13.432;2024-01-06T03:54:57;51.80;;;23.20;;
16472;SDS011;8347;52.486;13.432;2024-01-06T03:57:44;51.75;;;24.35;;
16472;SDS011;8347;52.486;13.432;2024-01-06T04:00:31;52.38;;;23.00;;
16472;SDS011;8347;52.486;13.432;2024-01-06T04:03:17;51.63;;;23.73;;
16472;SDS011;8347;52.486;13.432;2024-01-06T04:06:03;53.88;;;22.83;;
16472;SDS011;8347;52.486;13.432;2024-01-06T04:08:51;47.78;;;22.08;;
16472;SDS011;8347;52.486;13.432;2024-01-06T04:11:38;53.45;;;23.25;;
16472;SDS011;8347;52.486;13.432;2024-01-06T04:14:25;50.75;;;22.65;;
16472;SDS011;8347;52.486;13.432;2024-01-06T04:17:11;52.70;;;21.67;;
16472;SDS011;8347;52.486;13.432;2024-01-06T04:19:57;53.97;;;23.40;;
16472;SDS011;8347;52.486;13.432;2024-01-06T04:22:44;49.35;;;22.80;;
16472;SDS011;8347;52.486;13.432;2024-01-06T04:25:31;48.63;;;24.23;;
16472;SDS011;8347;52.486;13.432;2024-01-06T04:28:17;55.80;;;21.98;;
16472;SDS011;8347;52.486;13.432;2024-01-06T04:31:03;52.90;;;24.75;;
16472;SDS011;8347;52.486;13.432;2024-01-06T04:33:49;59.60;;;23.50;;
16472;SDS011;8347;52.486;13.432;2024-01-06T04:36:36;54.58;;;24.30;;
16472;SDS011;8347;52.486;13.432;2024-01-06T04:39:23;57.15;;;24.02;;
16472;SDS011;8347;52.486;13.432;2024-01-06T04:42:09;53.55;;;23.95;;
16472;SDS011;8347;52.486;13.432;2024-01-06T04:44:56;52.60;;;22.35;;
16472;SDS011;8347;52.486;13.432;2024-01-06T04:47:42;55.63;;;23.85;;
16472;SDS011;8347;52.486;13.432;2024-01-06T04:50:29;59.60;;;24.48;;
16472;SDS011;8347;52.486;13.432;2024-01-06T04:53:15;58.25;;;23.75;;
16472;SDS011;8347;52.486;13.432;2024-01-06T04:56:02;55.42;;;24.90;;
16472;SDS011;8347;52.486;13.432;2024-01-06T04:58:48;54.95;;;23.65;;
16472;SDS011;8347;52.486;13.432;2024-01-06T05:01:35;53.97;;;24.30;;
16472;SDS011;8347;52.486;13.432;2024-01-06T05:04:21;56.95;;;24.73;;
16472;SDS011;8347;52.486;13.432;2024-01-06T05:07:07;46.78;;;23.77;;
16472;SDS011;8347;52.486;13.432;2024-01-06T05:09:54;59.85;;;24.77;;
16472;SDS011;8347;52.486;13.432;2024-01-06T05:12:40;55.03;;;25.35;;
16472;SDS011;8347;52.486;13.432;2024-01-06T05:15:26;57.25;;;26.00;;
16472;SDS011;8347;52.486;13.432;2024-01-06T05:18:13;54.50;;;26.88;;
16472;SDS011;8347;52.486;13.432;2024-01-06T05:20:59;61.17;;;26.05;;
16472;SDS011;8347;52.486;13.432;2024-01-06T05:23:46;58.42;;;24.80;;
16472;SDS011;8347;52.486;13.432;2024-01-06T05:26:32;67.65;;;26.30;;
16472;SDS011;8347;52.486;13.432;2024-01-06T05:29:19;66.70;;;25.88;;
16472;SDS011;8347;52.486;13.432;2024-01-06T05:32:05;56.28;;;26.45;;
16472;SDS011;8347;52.486;13.432;2024-01-06T05:34:52;60.88;;;25.52;;
16472;SDS011;8347;52.486;13.432;2024-01-06T05:37:39;60.67;;;27.08;;
16472;SDS011;8347;52.486;13.432;2024-01-06T05:40:26;71.15;;;26.83;;
16472;SDS011;8347;52.486;13.432;2024-01-06T05:43:12;56.45;;;27.27;;
16472;SDS011;8347;52.486;13.432;2024-01-06T05:45:59;72.45;;;27.35;;
16472;SDS011;8347;52.486;13.432;2024-01-06T05:48:46;61.00;;;27.02;;
16472;SDS011;8347;52.486;13.432;2024-01-06T05:51:32;60.30;;;25.65;;
16472;SDS011;8347;52.486;13.432;2024-01-06T05:54:18;58.90;;;23.67;;
16472;SDS011;8347;52.486;13.432;2024-01-06T05:57:05;64.78;;;26.48;;
16472;SDS011;8347;52.486;13.432;2024-01-06T05:59:51;68.00;;;24.73;;
16472;SDS011;8347;52.486;13.432;2024-01-06T06:02:40;61.35;;;25.73;;
16472;SDS011;8347;52.486;13.432;2024-01-06T06:05:26;63.53;;;24.90;;
16472;SDS011;8347;52.486;13.432;2024-01-06T06:08:13;56.33;;;24.33;;
16472;SDS011;8347;52.486;13.432;2024-01-06T06:11:00;61.10;;;27.20;;
16472;SDS011;8347;52.486;13.432;2024-01-06T06:13:47;67.72;;;25.08;;
16472;SDS011;8347;52.486;13.432;2024-01-06T06:16:33;55.22;;;24.13;;
16472;SDS011;8347;52.486;13.432;2024-01-06T06:19:19;63.08;;;24.38;;
16472;SDS011;8347;52.486;13.432;2024-01-06T06:22:06;62.40;;;27.42;;
16472;SDS011;8347;52.486;13.432;2024-01-06T06:24:53;70.82;;;26.40;;
16472;SDS011;8347;52.486;13.432;2024-01-06T06:27:39;65.15;;;27.73;;
16472;SDS011;8347;52.486;13.432;2024-01-06T06:30:26;54.47;;;25.70;;
16472;SDS011;8347;52.486;13.432;2024-01-06T06:33:13;56.53;;;24.75;;
16472;SDS011;8347;52.486;13.432;2024-01-06T06:36:00;67.40;;;25.45;;
16472;SDS011;8347;52.486;13.432;2024-01-06T06:38:47;56.63;;;24.73;;
16472;SDS011;8347;52.486;13.432;2024-01-06T06:41:34;58.15;;;25.83;;
16472;SDS011;8347;52.486;13.432;2024-01-06T06:44:20;61.10;;;24.15;;
16472;SDS011;8347;52.486;13.432;2024-01-06T06:47:06;66.00;;;25.25;;
16472;SDS011;8347;52.486;13.432;2024-01-06T06:49:53;54.67;;;25.67;;
16472;SDS011;8347;52.486;13.432;2024-01-06T06:52:39;62.40;;;24.92;;
16472;SDS011;8347;52.486;13.432;2024-01-06T06:55:27;59.85;;;25.38;;
16472;SDS011;8347;52.486;13.432;2024-01-06T06:58:14;57.85;;;23.55;;
16472;SDS011;8347;52.486;13.432;2024-01-06T07:01:00;51.15;;;26.17;;
16472;SDS011;8347;52.486;13.432;2024-01-06T07:03:47;50.97;;;23.52;;
16472;SDS011;8347;52.486;13.432;2024-01-06T07:06:33;50.85;;;22.67;;
16472;SDS011;8347;52.486;13.432;2024-01-06T07:09:20;66.30;;;28.35;;
16472;SDS011;8347;52.486;13.432;2024-01-06T07:12:09;64.38;;;25.73;;
16472;SDS011;8347;52.486;13.432;2024-01-06T07:14:55;54.53;;;23.63;;
16472;SDS011;8347;52.486;13.432;2024-01-06T07:17:42;61.63;;;25.65;;
16472;SDS011;8347;52.486;13.432;2024-01-06T07:20:28;54.90;;;23.73;;
16472;SDS011;8347;52.486;13.432;2024-01-06T07:23:15;59.08;;;25.30;;
16472;SDS011;8347;52.486;13.432;2024-01-06T07:26:01;61.22;;;24.40;;
16472;SDS011;8347;52.486;13.432;2024-01-06T07:28:47;57.63;;;23.35;;
16472;SDS011;8347;52.486;13.432;2024-01-06T07:31:34;58.22;;;23.88;;
16472;SDS011;8347;52.486;13.432;2024-01-06T07:34:21;56.03;;;23.15;;
16472;SDS011;8347;52.486;13.432;2024-01-06T07:37:07;65.57;;;23.90;;
16472;SDS011;8347;52.486;13.432;2024-01-06T07:39:54;63.90;;;24.90;;
16472;SDS011;8347;52.486;13.432;2024-01-06T07:42:40;62.28;;;23.90;;
16472;SDS011;8347;52.486;13.432;2024-01-06T07:45:27;62.85;;;26.50;;
16472;SDS011;8347;52.486;13.432;2024-01-06T07:48:13;70.85;;;26.40;;
16472;SDS011;8347;52.486;13.432;2024-01-06T07:51:01;66.50;;;25.88;;
16472;SDS011;8347;52.486;13.432;2024-01-06T07:53:49;61.78;;;27.05;;
16472;SDS011;8347;52.486;13.432;2024-01-06T07:56:35;67.70;;;27.17;;
16472;SDS011;8347;52.486;13.432;2024-01-06T07:59:22;69.20;;;26.35;;
16472;SDS011;8347;52.486;13.432;2024-01-06T08:02:09;74.30;;;26.83;;
16472;SDS011;8347;52.486;13.432;2024-01-06T08:04:56;58.78;;;25.42;;
16472;SDS011;8347;52.486;13.432;2024-01-06T08:07:42;66.00;;;27.13;;
16472;SDS011;8347;52.486;13.432;2024-01-06T08:10:29;63.17;;;24.33;;
16472;SDS011;8347;52.486;13.432;2024-01-06T08:13:16;69.88;;;27.05;;
16472;SDS011;8347;52.486;13.432;2024-01-06T08:16:03;71.60;;;26.85;;
16472;SDS011;8347;52.486;13.432;2024-01-06T08:18:50;69.28;;;24.25;;
16472;SDS011;8347;52.486;13.432;2024-01-06T08:21:37;63.15;;;23.42;;
16472;SDS011;8347;52.486;13.432;2024-01-06T08:24:24;66.03;;;25.67;;
16472;SDS011;8347;52.486;13.432;2024-01-06T08:27:10;57.97;;;25.90;;
16472;SDS011;8347;52.486;13.432;2024-01-06T08:29:56;72.45;;;26.83;;
16472;SDS011;8347;52.486;13.432;2024-01-06T08:32:43;70.57;;;25.27;;
16472;SDS011;8347;52.486;13.432;2024-01-06T08:35:29;64.55;;;24.75;;
16472;SDS011;8347;52.486;13.432;2024-01-06T08:38:17;58.10;;;24.55;;
16472;SDS011;8347;52.486;13.432;2024-01-06T08:41:04;60.63;;;25.02;;
16472;SDS011;8347;52.486;13.432;2024-01-06T08:43:50;66.25;;;24.33;;
16472;SDS011;8347;52.486;13.432;2024-01-06T08:46:37;71.32;;;26.50;;
16472;SDS011;8347;52.486;13.432;2024-01-06T08:49:23;62.13;;;25.02;;
16472;SDS011;8347;52.486;13.432;2024-01-06T08:52:10;65.30;;;25.48;;
16472;SDS011;8347;52.486;13.432;2024-01-06T08:54:57;65.40;;;25.73;;
16472;SDS011;8347;52.486;13.432;2024-01-06T08:57:43;61.10;;;25.10;;
16472;SDS011;8347;52.486;13.432;2024-01-06T09:00:30;58.65;;;23.50;;
16472;SDS011;8347;52.486;13.432;2024-01-06T09:03:17;67.38;;;25.27;;
16472;SDS011;8347;52.486;13.432;2024-01-06T09:06:03;59.95;;;25.15;;
16472;SDS011;8347;52.486;13.432;2024-01-06T09:08:50;55.47;;;22.73;;
16472;SDS011;8347;52.486;13.432;2024-01-06T09:11:36;62.28;;;23.42;;
16472;SDS011;8347;52.486;13.432;2024-01-06T09:14:23;62.42;;;24.83;;
16472;SDS011;8347;52.486;13.432;2024-01-06T09:17:09;54.33;;;25.00;;
16472;SDS011;8347;52.486;13.432;2024-01-06T09:19:56;55.25;;;24.10;;
16472;SDS011;8347;52.486;13.432;2024-01-06T09:22:44;62.15;;;22.88;;
16472;SDS011;8347;52.486;13.432;2024-01-06T09:25:30;64.20;;;26.05;;
16472;SDS011;8347;52.486;13.432;2024-01-06T09:28:18;55.95;;;24.60;;
16472;SDS011;8347;52.486;13.432;2024-01-06T09:31:04;56.08;;;23.25;;
16472;SDS011;8347;52.486;13.432;2024-01-06T09:33:51;65.05;;;22.23;;
16472;SDS011;8347;52.486;13.432;2024-01-06T09:36:37;51.65;;;21.48;;
16472;SDS011;8347;52.486;13.432;2024-01-06T09:39:24;62.03;;;24.75;;
16472;SDS011;8347;52.486;13.432;2024-01-06T09:42:11;66.90;;;24.83;;
16472;SDS011;8347;52.486;13.432;2024-01-06T09:44:57;52.58;;;23.95;;
16472;SDS011;8347;52.486;13.432;2024-01-06T09:47:45;63.85;;;23.73;;
16472;SDS011;8347;52.486;13.432;2024-01-06T09:50:35;56.80;;;24.27;;
16472;SDS011;8347;52.486;13.432;2024-01-06T09:53:23;62.25;;;26.02;;
16472;SDS011;8347;52.486;13.432;2024-01-06T09:56:14;62.92;;;23.95;;
16472;SDS011;8347;52.486;13.432;2024-01-06T09:59:02;57.00;;;24.10;;
16472;SDS011;8347;52.486;13.432;2024-01-06T10:01:48;59.92;;;25.95;;
16472;SDS011;8347;52.486;13.432;2024-01-06T10:04:35;55.80;;;25.63;;
16472;SDS011;8347;52.486;13.432;2024-01-06T10:07:22;57.33;;;25.15;;
16472;SDS011;8347;52.486;13.432;2024-01-06T10:10:09;53.08;;;23.65;;
16472;SDS011;8347;52.486;13.432;2024-01-06T10:12:56;51.45;;;23.42;;
16472;SDS011;8347;52.486;13.432;2024-01-06T10:15:43;61.97;;;24.88;;
16472;SDS011;8347;52.486;13.432;2024-01-06T10:18:30;49.03;;;23.58;;
16472;SDS011;8347;52.486;13.432;2024-01-06T10:21:17;59.63;;;24.75;;
16472;SDS011;8347;52.486;13.432;2024-01-06T10:24:07;47.97;;;21.92;;
16472;SDS011;8347;52.486;13.432;2024-01-06T10:26:53;59.45;;;25.48;;
16472;SDS011;8347;52.486;13.432;2024-01-06T10:29:40;51.17;;;24.30;;
16472;SDS011;8347;52.486;13.432;2024-01-06T10:32:27;50.05;;;23.63;;
16472;SDS011;8347;52.486;13.432;2024-01-06T10:35:16;55.60;;;22.90;;
16472;SDS011;8347;52.486;13.432;2024-01-06T10:38:03;50.78;;;22.40;;
16472;SDS011;8347;52.486;13.432;2024-01-06T10:40:59;51.70;;;22.95;;
16472;SDS011;8347;52.486;13.432;2024-01-06T10:43:52;50.63;;;23.27;;
16472;SDS011;8347;52.486;13.432;2024-01-06T10:46:39;47.53;;;22.65;;
16472;SDS011;8347;52.486;13.432;2024-01-06T10:49:27;45.15;;;22.98;;
16472;SDS011;8347;52.486;13.432;2024-01-06T10:52:16;53.95;;;24.00;;
16472;SDS011;8347;52.486;13.432;2024-01-06T10:55:04;48.80;;;23.30;;
16472;SDS011;8347;52.486;13.432;2024-01-06T10:57:51;57.20;;;23.75;;
16472;SDS011;8347;52.486;13.432;2024-01-06T11:00:40;44.10;;;22.42;;
16472;SDS011;8347;52.486;13.432;2024-01-06T11:03:27;59.60;;;24.65;;
16472;SDS011;8347;52.486;13.432;2024-01-06T11:06:16;43.67;;;21.70;;
16472;SDS011;8347;52.486;13.432;2024-01-06T11:09:11;47.55;;;21.90;;
16472;SDS011;8347;52.486;13.432;2024-01-06T11:12:08;46.00;;;21.17;;
16472;SDS011;8347;52.486;13.432;2024-01-06T11:14:55;45.30;;;22.48;;
16472;SDS011;8347;52.486;13.432;2024-01-06T11:17:50;44.97;;;20.77;;
16472;SDS011;8347;52.486;13.432;2024-01-06T11:26:56;50.80;;;23.23;;
16472;SDS011;8347;52.486;13.432;2024-01-06T11:29:43;48.58;;;23.67;;
16472;SDS011;8347;52.486;13.432;2024-01-06T11:35:22;41.88;;;20.30;;
16472;SDS011;8347;52.486;13.432;2024-01-06T11:38:09;48.45;;;21.90;;
16472;SDS011;8347;52.486;13.432;2024-01-06T11:40:58;42.40;;;22.50;;
16472;SDS011;8347;52.486;13.432;2024-01-06T11:43:44;49.83;;;21.83;;
16472;SDS011;8347;52.486;13.432;2024-01-06T11:46:32;46.58;;;21.98;;
16472;SDS011;8347;52.486;13.432;2024-01-06T11:49:20;46.60;;;22.17;;
16472;SDS011;8347;52.486;13.432;2024-01-06T11:52:07;47.67;;;21.40;;
16472;SDS011;8347;52.486;13.432;2024-01-06T11:54:54;44.22;;;21.98;;
16472;SDS011;8347;52.486;13.432;2024-01-06T11:57:40;43.92;;;21.92;;
16472;SDS011;8347;52.486;13.432;2024-01-06T12:00:28;45.00;;;21.83;;
16472;SDS011;8347;52.486;13.432;2024-01-06T12:03:15;43.15;;;21.98;;
16472;SDS011;8347;52.486;13.432;2024-01-06T12:06:02;44.90;;;22.80;;
16472;SDS011;8347;52.486;13.432;2024-01-06T12:08:50;40.85;;;21.63;;
16472;SDS011;8347;52.486;13.432;2024-01-06T12:11:36;46.22;;;21.63;;
16472;SDS011;8347;52.486;13.432;2024-01-06T12:14:23;45.17;;;22.08;;
16472;SDS011;8347;52.486;13.432;2024-01-06T12:17:10;45.20;;;21.45;;
16472;SDS011;8347;52.486;13.432;2024-01-06T12:19:56;50.00;;;20.33;;
16472;SDS011;8347;52.486;13.432;2024-01-06T12:22:43;45.88;;;22.33;;
16472;SDS011;8347;52.486;13.432;2024-01-06T12:25:30;42.25;;;22.23;;
16472;SDS011;8347;52.486;13.432;2024-01-06T12:28:21;45.53;;;20.10;;
16472;SDS011;8347;52.486;13.432;2024-01-06T12:31:11;42.50;;;21.55;;
16472;SDS011;8347;52.486;13.432;2024-01-06T12:33:57;42.00;;;19.77;;
16472;SDS011;8347;52.486;13.432;2024-01-06T12:36:44;42.00;;;20.30;;
16472;SDS011;8347;52.486;13.432;2024-01-06T12:39:32;41.13;;;20.38;;
16472;SDS011;8347;52.486;13.432;2024-01-06T12:42:19;38.42;;;19.63;;
16472;SDS011;8347;52.486;13.432;2024-01-06T12:45:07;45.65;;;20.77;;
16472;SDS011;8347;52.486;13.432;2024-01-06T12:47:55;50.28;;;20.73;;
16472;SDS011;8347;52.486;13.432;2024-01-06T12:50:42;45.45;;;19.00;;
16472;SDS011;8347;52.486;13.432;2024-01-06T12:53:28;44.10;;;21.30;;
16472;SDS011;8347;52.486;13.432;2024-01-06T12:56:15;46.90;;;20.90;;
16472;SDS011;8347;52.486;13.432;2024-01-06T12:59:01;47.67;;;21.52;;
16472;SDS011;8347;52.486;13.432;2024-01-06T13:01:48;41.95;;;21.55;;
16472;SDS011;8347;52.486;13.432;2024-01-06T13:04:35;46.40;;;21.08;;
16472;SDS011;8347;52.486;13.432;2024-01-06T13:07:22;43.47;;;19.05;;
16472;SDS011;8347;52.486;13.432;2024-01-06T13:10:08;41.58;;;19.45;;
16472;SDS011;8347;52.486;13.432;2024-01-06T13:12:54;36.60;;;19.67;;
16472;SDS011;8347;52.486;13.432;2024-01-06T13:15:41;46.58;;;21.70;;
16472;SDS011;8347;52.486;13.432;2024-01-06T13:18:27;37.05;;;18.38;;
16472;SDS011;8347;52.486;13.432;2024-01-06T13:21:14;36.00;;;19.08;;
16472;SDS011;8347;52.486;13.432;2024-01-06T13:24:01;43.30;;;20.70;;
16472;SDS011;8347;52.486;13.432;2024-01-06T13:26:50;42.67;;;19.02;;
16472;SDS011;8347;52.486;13.432;2024-01-06T13:29:36;33.53;;;18.60;;
16472;SDS011;8347;52.486;13.432;2024-01-06T13:32:24;38.83;;;19.85;;
16472;SDS011;8347;52.486;13.432;2024-01-06T13:35:12;41.38;;;18.58;;
16472;SDS011;8347;52.486;13.432;2024-01-06T13:37:59;40.78;;;17.90;;
16472;SDS011;8347;52.486;13.432;2024-01-06T13:40:46;36.10;;;17.67;;
16472;SDS011;8347;52.486;13.432;2024-01-06T13:43:32;32.83;;;17.50;;
16472;SDS011;8347;52.486;13.432;2024-01-06T13:46:19;40.80;;;19.30;;
16472;SDS011;8347;52.486;13.432;2024-01-06T13:49:06;33.03;;;16.80;;
16472;SDS011;8347;52.486;13.432;2024-01-06T13:51:52;36.28;;;16.33;;
16472;SDS011;8347;52.486;13.432;2024-01-06T13:54:39;38.03;;;18.52;;
16472;SDS011;8347;52.486;13.432;2024-01-06T13:57:26;42.92;;;18.92;;
16472;SDS011;8347;52.486;13.432;2024-01-06T14:00:13;32.33;;;16.55;;
16472;SDS011;8347;52.486;13.432;2024-01-06T14:03:04;42.78;;;19.30;;
16472;SDS011;8347;52.486;13.432;2024-01-06T14:05:52;41.60;;;19.48;;
16472;SDS011;8347;52.486;13.432;2024-01-06T14:08:39;34.30;;;17.80;;
16472;SDS011;8347;52.486;13.432;2024-01-06T14:11:27;38.33;;;20.05;;
16472;SDS011;8347;52.486;13.432;2024-01-06T14:14:16;39.72;;;19.60;;
16472;SDS011;8347;52.486;13.432;2024-01-06T14:17:02;38.40;;;17.30;;
16472;SDS011;8347;52.486;13.432;2024-01-06T14:19:49;39.10;;;18.70;;
16472;SDS011;8347;52.486;13.432;2024-01-06T14:22:36;31.73;;;16.58;;
16472;SDS011;8347;52.486;13.432;2024-01-06T14:25:23;32.92;;;16.70;;
16472;SDS011;8347;52.486;13.432;2024-01-06T14:28:09;32.63;;;17.02;;
16472;SDS011;8347;52.486;13.432;2024-01-06T14:30:55;40.45;;;16.63;;
16472;SDS011;8347;52.486;13.432;2024-01-06T14:33:42;37.78;;;17.17;;
16472;SDS011;8347;52.486;13.432;2024-01-06T14:36:29;42.83;;;19.52;;
16472;SDS011;8347;52.486;13.432;2024-01-06T14:39:15;29.90;;;15.82;;
16472;SDS011;8347;52.486;13.432;2024-01-06T14:42:02;38.80;;;17.98;;
16472;SDS011;8347;52.486;13.432;2024-01-06T14:44:48;30.98;;;16.98;;
16472;SDS011;8347;52.486;13.432;2024-01-06T14:47:35;37.65;;;17.63;;
16472;SDS011;8347;52.486;13.432;2024-01-06T14:50:21;31.08;;;16.00;;
16472;SDS011;8347;52.486;13.432;2024-01-06T14:53:08;29.67;;;15.65;;
16472;SDS011;8347;52.486;13.432;2024-01-06T14:55:56;32.63;;;17.00;;
16472;SDS011;8347;52.486;13.432;2024-01-06T14:58:42;36.45;;;17.38;;
16472;SDS011;8347;52.486;13.432;2024-01-06T15:01:29;30.15;;;16.40;;
16472;SDS011;8347;52.486;13.432;2024-01-06T15:04:15;26.85;;;14.98;;
16472;SDS011;8347;52.486;13.432;2024-01-06T15:07:04;32.72;;;15.50;;
16472;SDS011;8347;52.486;13.432;2024-01-06T15:09:50;26.92;;;14.52;;
16472;SDS011;8347;52.486;13.432;2024-01-06T15:12:37;27.90;;;14.75;;
16472;SDS011;8347;52.486;13.432;2024-01-06T15:15:24;25.40;;;14.20;;
16472;SDS011;8347;52.486;13.432;2024-01-06T15:18:10;24.23;;;12.32;;
16472;SDS011;8347;52.486;13.432;2024-01-06T15:20:57;23.27;;;13.45;;
16472;SDS011;8347;52.486;13.432;2024-01-06T15:23:44;20.33;;;11.13;;
16472;SDS011;8347;52.486;13.432;2024-01-06T15:26:31;24.08;;;13.30;;
16472;SDS011;8347;52.486;13.432;2024-01-06T15:29:18;24.05;;;11.23;;
16472;SDS011;8347;52.486;13.432;2024-01-06T15:32:05;26.45;;;12.32;;
16472;SDS011;8347;52.486;13.432;2024-01-06T15:34:53;27.38;;;12.50;;
16472;SDS011;8347;52.486;13.432;2024-01-06T15:37:40;21.83;;;10.65;;
16472;SDS011;8347;52.486;13.432;2024-01-06T15:40:26;21.63;;;10.15;;
16472;SDS011;8347;52.486;13.432;2024-01-06T15:43:12;19.42;;;8.82;;
16472;SDS011;8347;52.486;13.432;2024-01-06T15:45:59;17.80;;;9.73;;
16472;SDS011;8347;52.486;13.432;2024-01-06T15:48:45;18.95;;;9.90;;
16472;SDS011;8347;52.486;13.432;2024-01-06T15:51:32;23.75;;;12.07;;
16472;SDS011;8347;52.486;13.432;2024-01-06T15:54:19;20.20;;;10.70;;
16472;SDS011;8347;52.486;13.432;2024-01-06T15:57:05;19.77;;;9.85;;
16472;SDS011;8347;52.486;13.432;2024-01-06T15:59:53;18.98;;;9.63;;
16472;SDS011;8347;52.486;13.432;2024-01-06T16:02:40;24.83;;;11.35;;
16472;SDS011;8347;52.486;13.432;2024-01-06T16:05:26;20.52;;;9.50;;
16472;SDS011;8347;52.486;13.432;2024-01-06T16:08:13;16.92;;;9.00;;
16472;SDS011;8347;52.486;13.432;2024-01-06T16:11:00;16.10;;;8.88;;
16472;SDS011;8347;52.486;13.432;2024-01-06T16:13:47;15.90;;;8.13;;
16472;SDS011;8347;52.486;13.432;2024-01-06T16:16:33;17.98;;;8.35;;
16472;SDS011;8347;52.486;13.432;2024-01-06T16:19:20;13.68;;;7.40;;
16472;SDS011;8347;52.486;13.432;2024-01-06T16:22:06;15.68;;;9.60;;
16472;SDS011;8347;52.486;13.432;2024-01-06T16:24:53;21.65;;;10.43;;